createdAt,value
2018-08-22T00:01:28.311Z,64.70
2018-08-22T00:06:31.323Z,64.60
2018-08-22T00:11:34.343Z,65.00
2018-08-22T00:16:37.352Z,65.20
2018-08-22T00:21:40.375Z,65.50
2018-08-22T00:26:43.386Z,65.60
2018-08-22T00:31:46.440Z,65.60
2018-08-22T00:36:49.470Z,65.90
2018-08-22T00:41:52.496Z,66.50
2018-08-22T00:46:55.518Z,66.80
2018-08-22T00:51:58.534Z,67.10
2018-08-22T00:57:01.530Z,67.30
2018-08-22T01:02:04.664Z,67.60
2018-08-22T01:07:07.747Z,68.10
2018-08-22T01:12:10.747Z,68.00
2018-08-22T01:17:13.783Z,68.70
2018-08-22T01:22:16.855Z,68.70
2018-08-22T01:27:22.750Z,69.30
2018-08-22T01:42:31.627Z,69.80
2018-08-22T01:47:34.660Z,70.70
2018-08-22T01:52:37.743Z,70.80
2018-08-22T01:57:40.774Z,71.40
2018-08-22T02:02:43.899Z,71.80
2018-08-22T02:07:46.915Z,72.00
2018-08-22T02:12:49.955Z,72.70
2018-08-22T02:17:52.974Z,72.90
2018-08-22T02:22:56.015Z,73.10
2018-08-22T02:27:59.031Z,73.70
2018-08-22T02:33:02.123Z,74.30
2018-08-22T02:38:05.614Z,75.00
2018-08-22T02:43:08.664Z,75.40
2018-08-22T02:48:11.708Z,76.00
2018-08-22T02:53:14.745Z,76.10
2018-08-22T02:58:17.800Z,76.50
2018-08-22T03:03:20.821Z,77.40
2018-08-22T03:08:24.144Z,77.50
2018-08-22T03:13:27.337Z,78.30
2018-08-22T03:18:30.519Z,78.80
2018-08-22T03:23:33.542Z,79.30
2018-08-22T03:28:36.631Z,79.80
2018-08-22T03:33:40.748Z,80.10
2018-08-22T03:38:43.871Z,80.50
2018-08-22T03:43:46.959Z,81.00
2018-08-22T03:48:49.986Z,81.40
2018-08-22T03:53:52.993Z,81.80
2018-08-22T03:58:56.005Z,82.20
2018-08-22T04:03:59.045Z,82.60
2018-08-22T04:09:02.083Z,83.00
2018-08-22T04:14:05.132Z,83.90
2018-08-22T04:19:08.157Z,84.10
2018-08-22T04:24:11.212Z,84.20
2018-08-22T04:29:14.237Z,84.40
2018-08-22T04:34:17.293Z,84.50
2018-08-22T04:39:20.341Z,85.50
2018-08-22T04:44:23.380Z,84.90
2018-08-22T04:49:26.565Z,85.10
2018-08-22T04:54:29.631Z,85.50
2018-08-22T04:59:32.736Z,85.70
2018-08-22T05:04:35.768Z,86.00
2018-08-22T05:09:38.792Z,85.80
2018-08-22T05:14:41.836Z,86.30
2018-08-22T05:19:44.875Z,85.50
2018-08-22T05:24:47.938Z,85.30
2018-08-22T05:29:50.940Z,84.60
2018-08-22T05:34:53.958Z,84.30
2018-08-22T05:39:56.962Z,84.40
2018-08-22T05:45:00.062Z,83.90
2018-08-22T05:50:03.072Z,83.70
2018-08-22T05:55:06.098Z,83.30
2018-08-22T06:00:09.132Z,83.00
2018-08-22T06:05:12.152Z,82.30
2018-08-22T06:10:15.188Z,82.10
2018-08-22T06:15:18.231Z,80.90
2018-08-22T06:20:21.285Z,81.30
2018-08-22T06:25:24.378Z,80.80
2018-08-22T06:30:27.397Z,80.30
2018-08-22T06:35:30.435Z,79.90
2018-08-22T06:40:33.853Z,78.50
2018-08-22T06:45:37.112Z,78.10
2018-08-22T06:50:40.316Z,78.40
2018-08-22T06:55:43.355Z,77.60
2018-08-22T07:00:46.448Z,78.50
2018-08-22T07:05:49.535Z,78.50
2018-08-22T07:10:52.577Z,76.80
2018-08-22T07:15:55.689Z,75.00
2018-08-22T07:20:58.823Z,75.20
2018-08-22T07:26:01.828Z,73.60
2018-08-22T07:31:04.897Z,71.10
2018-08-22T07:36:08.061Z,70.70
2018-08-22T07:41:12.282Z,71.50
2018-08-22T07:46:15.492Z,70.30
2018-08-22T07:51:18.606Z,70.10
2018-08-22T07:56:22.385Z,68.80
2018-08-22T08:01:25.601Z,68.10
2018-08-22T08:06:28.617Z,67.10
2018-08-22T08:16:35.405Z,66.10
2018-08-22T08:21:38.592Z,65.40
2018-08-22T08:26:41.968Z,64.20
2018-08-22T08:31:44.983Z,60.90
2018-08-22T08:36:47.989Z,61.10
2018-08-22T08:41:51.079Z,61.40
2018-08-22T08:46:54.109Z,59.60
2018-08-22T08:51:58.822Z,59.50
2018-08-22T08:57:01.835Z,57.30
2018-08-22T09:02:04.941Z,58.50
2018-08-22T09:07:07.964Z,57.00
2018-08-22T09:12:11.027Z,56.20
2018-08-22T09:17:14.947Z,55.60
2018-08-22T09:22:17.968Z,50.70
2018-08-22T09:27:20.984Z,51.40
2018-08-22T09:32:24.087Z,49.70
2018-08-22T09:37:27.090Z,49.30
2018-08-22T09:42:30.114Z,49.70
2018-08-22T09:47:33.658Z,48.20
2018-08-22T09:52:36.696Z,49.70
2018-08-22T09:57:39.726Z,49.80
2018-08-22T10:02:42.859Z,48.10
2018-08-22T10:07:46.011Z,48.00
2018-08-22T10:12:49.052Z,45.20
2018-08-22T10:17:52.089Z,44.30
2018-08-22T10:22:55.095Z,45.50
2018-08-22T10:27:58.178Z,45.10
2018-08-22T10:33:01.187Z,43.40
2018-08-22T10:38:04.208Z,43.90
2018-08-22T10:43:07.299Z,45.10
2018-08-22T10:48:10.345Z,44.40
2018-08-22T10:53:13.442Z,44.40
2018-08-22T10:58:16.472Z,44.20
2018-08-22T11:03:19.492Z,42.60
2018-08-22T11:08:22.510Z,41.80
2018-08-22T11:13:25.519Z,42.30
2018-08-22T11:18:28.552Z,39.70
2018-08-22T11:23:43.127Z,40.60
2018-08-22T11:28:57.523Z,41.40
2018-08-22T11:34:12.352Z,40.80
2018-08-22T11:39:15.366Z,39.90
2018-08-22T11:44:18.375Z,40.20
2018-08-22T11:49:21.547Z,39.80
2018-08-22T11:54:24.549Z,39.00
2018-08-22T11:59:27.602Z,37.30
2018-08-22T12:04:30.632Z,37.40
2018-08-22T12:09:33.707Z,38.40
2018-08-22T12:14:36.757Z,37.60
2018-08-22T12:19:39.791Z,37.60
2018-08-22T12:24:42.926Z,38.30
2018-08-22T12:29:46.013Z,37.60
2018-08-22T12:34:49.048Z,38.10
2018-08-22T12:39:52.057Z,38.30
2018-08-22T12:44:55.095Z,38.00
2018-08-22T12:49:58.105Z,37.80
2018-08-22T12:55:01.194Z,37.70
2018-08-22T13:00:04.523Z,37.20
2018-08-22T13:05:07.640Z,38.50
2018-08-22T13:10:10.795Z,39.10
2018-08-22T13:15:13.818Z,38.80
2018-08-22T13:20:16.853Z,39.40
2018-08-22T13:25:19.968Z,38.70
2018-08-22T13:30:23.047Z,39.20
2018-08-22T13:35:26.103Z,38.90
2018-08-22T13:40:29.183Z,38.30
2018-08-22T13:45:32.200Z,38.20
2018-08-22T13:50:35.207Z,38.80
2018-08-22T13:55:38.229Z,39.00
2018-08-22T14:00:41.242Z,37.80
2018-08-22T14:05:44.301Z,37.10
2018-08-22T14:10:47.350Z,38.10
2018-08-22T14:15:50.403Z,36.70
2018-08-22T14:20:53.444Z,37.00
2018-08-22T14:25:56.568Z,36.20
2018-08-22T14:30:59.749Z,36.10
2018-08-22T14:36:02.882Z,37.40
2018-08-22T14:41:06.277Z,36.40
2018-08-22T14:46:09.556Z,35.60
2018-08-22T14:51:12.634Z,36.40
2018-08-22T14:56:15.916Z,36.40
2018-08-22T15:01:19.027Z,36.90
2018-08-22T15:06:22.155Z,36.20
2018-08-22T15:11:25.405Z,36.30
2018-08-22T15:16:28.569Z,36.60
2018-08-22T15:21:31.591Z,36.20
2018-08-22T15:26:34.785Z,35.50
2018-08-22T15:31:38.399Z,35.10
2018-08-22T15:36:41.474Z,35.20
2018-08-22T15:41:44.513Z,35.00
2018-08-22T15:46:47.537Z,35.30
2018-08-22T15:51:50.568Z,35.30
2018-08-22T15:56:57.871Z,35.80
2018-08-22T16:02:00.893Z,36.50
2018-08-22T16:07:07.937Z,35.80
2018-08-22T16:12:11.031Z,35.50
2018-08-22T16:17:14.205Z,36.50
2018-08-22T16:22:17.254Z,36.40
2018-08-22T16:27:20.284Z,35.70
2018-08-22T16:32:23.676Z,35.60
2018-08-22T16:37:26.773Z,36.50
2018-08-22T16:42:38.288Z,37.40
2018-08-22T16:47:41.318Z,36.90
2018-08-22T16:52:44.335Z,37.00
2018-08-22T16:57:48.342Z,36.70
2018-08-22T17:02:51.383Z,36.80
2018-08-22T17:07:54.432Z,37.30
2018-08-22T17:12:57.547Z,36.50
2018-08-22T17:18:00.572Z,36.00
2018-08-22T17:23:03.660Z,36.60
2018-08-22T17:28:06.681Z,38.30
2018-08-22T17:33:11.292Z,40.40
2018-08-22T17:38:14.419Z,42.30
2018-08-22T17:43:17.430Z,42.80
2018-08-22T17:48:21.883Z,43.90
2018-08-22T17:53:25.013Z,45.00
2018-08-22T17:58:28.043Z,46.40
2018-08-22T18:03:32.070Z,46.80
2018-08-22T18:08:35.150Z,47.30
2018-08-22T18:13:38.251Z,47.60
2018-08-22T18:18:41.369Z,47.90
2018-08-22T18:23:48.653Z,48.50
2018-08-22T18:28:51.699Z,48.90
2018-08-22T18:33:58.726Z,49.30
2018-08-22T18:39:06.292Z,49.40
2018-08-22T18:44:09.308Z,49.70
2018-08-22T18:49:12.380Z,50.30
2018-08-22T18:54:15.459Z,50.60
2018-08-22T18:59:24.845Z,50.90
2018-08-22T19:04:27.950Z,51.10
2018-08-22T19:09:31.028Z,50.80
2018-08-22T19:14:41.859Z,51.20
2018-08-22T19:19:46.178Z,52.00
2018-08-22T19:25:03.823Z,52.00
2018-08-22T19:30:07.215Z,53.30
2018-08-22T19:35:10.251Z,52.60
2018-08-22T19:40:13.272Z,53.00
2018-08-22T19:45:16.334Z,53.30
2018-08-22T19:50:19.542Z,53.50
2018-08-22T19:55:22.589Z,53.80
2018-08-22T20:00:25.595Z,54.00
2018-08-22T20:05:49.402Z,54.40
2018-08-22T20:10:52.416Z,54.70
2018-08-22T20:15:55.539Z,54.90
2018-08-22T20:20:58.648Z,55.10
2018-08-22T20:26:01.877Z,55.60
2018-08-22T20:31:09.325Z,55.70
2018-08-22T20:36:12.550Z,56.10
2018-08-22T20:41:16.646Z,56.40
2018-08-22T20:46:19.873Z,56.60
2018-08-22T20:51:22.947Z,56.70
2018-08-22T20:56:26.871Z,57.00
2018-08-22T21:01:29.900Z,57.50
2018-08-22T21:06:33.017Z,57.40
2018-08-22T21:11:38.184Z,57.60
2018-08-22T21:16:41.208Z,57.70
2018-08-22T21:21:44.304Z,58.00
2018-08-22T21:26:47.429Z,57.70
2018-08-22T21:31:50.470Z,57.80
2018-08-22T21:36:53.594Z,57.80
2018-08-22T21:41:56.791Z,58.00
2018-08-22T21:47:05.156Z,58.20
2018-08-22T21:52:08.197Z,58.80
2018-08-22T21:57:11.179Z,59.00
2018-08-22T22:02:14.188Z,59.00
2018-08-22T22:07:17.275Z,59.40
2018-08-22T22:12:25.778Z,59.30
2018-08-22T22:17:28.806Z,59.60
2018-08-22T22:22:31.820Z,59.90
2018-08-22T22:27:34.829Z,60.00
2018-08-22T22:32:37.832Z,60.50
2018-08-22T22:37:40.855Z,60.70
2018-08-22T22:42:43.875Z,61.00
2018-08-22T22:47:46.917Z,61.30
2018-08-22T22:52:50.078Z,61.30
2018-08-22T22:57:53.116Z,61.80
2018-08-22T23:03:08.744Z,61.70
2018-08-22T23:08:11.755Z,62.00
2018-08-22T23:13:14.785Z,61.50
2018-08-22T23:18:17.825Z,62.50
2018-08-22T23:23:31.882Z,62.80
2018-08-22T23:28:34.949Z,63.30
2018-08-22T23:33:38.108Z,63.60
2018-08-22T23:38:41.138Z,63.90
2018-08-22T23:43:49.697Z,64.50
2018-08-22T23:48:55.040Z,64.40
2018-08-22T23:53:59.442Z,65.20
2018-08-22T23:59:02.531Z,65.20
